createdAt,value
2022-08-04T00:02:11.292Z,100181.19
2022-08-04T00:05:41.450Z,100178.13
2022-08-04T00:08:48.337Z,100117.53
2022-08-04T00:11:59.756Z,100169.75
2022-08-04T00:15:07.863Z,100173.28
2022-08-04T00:18:16.707Z,100176.03
2022-08-04T00:21:25.615Z,100160.38
2022-08-04T00:24:32.696Z,100157.75
2022-08-04T00:27:37.838Z,100157.44
2022-08-04T00:30:44.093Z,100169.47
2022-08-04T00:33:49.932Z,100166.22
2022-08-04T00:36:56.378Z,100155.00
2022-08-04T00:40:02.435Z,100157.94
2022-08-04T00:43:23.520Z,100153.13
2022-08-04T00:46:29.716Z,100153.41
2022-08-04T00:50:05.072Z,100154.69
2022-08-04T00:53:18.508Z,100156.97
2022-08-04T00:56:50.974Z,100157.47
2022-08-04T01:00:01.432Z,100164.75
2022-08-04T01:03:15.841Z,100167.34
2022-08-04T01:06:36.109Z,100155.13
2022-08-04T01:10:02.550Z,100159.59
2022-08-04T01:13:15.424Z,100161.38
2022-08-04T01:16:27.376Z,100155.66
2022-08-04T01:19:55.919Z,100148.81
2022-08-04T01:23:37.834Z,100148.75
2022-08-04T01:26:58.265Z,100149.31
2022-08-04T01:30:03.776Z,100151.50
2022-08-04T01:33:15.615Z,100150.59
2022-08-04T01:36:26.303Z,100146.56
2022-08-04T01:39:42.542Z,100137.63
2022-08-04T01:42:48.712Z,100138.00
2022-08-04T01:46:00.248Z,100088.06
2022-08-04T01:49:07.832Z,100123.41
2022-08-04T01:52:12.947Z,100118.63
2022-08-04T01:55:19.027Z,100119.28
2022-08-04T01:58:25.499Z,100127.88
2022-08-04T02:01:30.334Z,100115.66
2022-08-04T02:04:37.986Z,100108.78
2022-08-04T02:08:21.103Z,100110.28
2022-08-04T02:11:27.919Z,100110.53
2022-08-04T02:14:47.050Z,100108.63
2022-08-04T02:18:13.159Z,100115.44
2022-08-04T02:21:20.808Z,100092.50
2022-08-04T02:24:29.141Z,100081.13
2022-08-04T02:27:59.252Z,100085.69
2022-08-04T02:31:28.667Z,100088.53
2022-08-04T02:34:36.546Z,100094.81
2022-08-04T02:37:58.032Z,100100.78
2022-08-04T02:41:03.704Z,100069.13
2022-08-04T02:44:11.788Z,100076.88
2022-08-04T02:47:18.990Z,100064.97
2022-08-04T02:50:28.434Z,100072.16
2022-08-04T02:53:38.281Z,100066.72
2022-08-04T02:56:46.655Z,100079.47
2022-08-04T03:00:12.739Z,100083.44
2022-08-04T03:03:38.677Z,100050.47
2022-08-04T03:07:14.417Z,100029.66
2022-08-04T03:10:48.325Z,100049.28
2022-08-04T03:14:29.988Z,100063.81
2022-08-04T03:17:53.530Z,100042.81
2022-08-04T03:21:16.458Z,100045.72
2022-08-04T03:24:45.507Z,100057.66
2022-08-04T03:28:14.649Z,100046.56
2022-08-04T03:31:41.143Z,100038.34
2022-08-04T07:33:26.704Z,99954.59
2022-08-04T07:36:38.355Z,99974.91
2022-08-04T07:39:55.366Z,99977.72
2022-08-04T07:43:01.326Z,99965.28
2022-08-04T07:46:06.542Z,99961.69
2022-08-04T07:49:11.579Z,99948.88
2022-08-04T07:52:39.953Z,99960.38
2022-08-04T07:55:48.188Z,99946.94
2022-08-04T07:58:52.828Z,99956.25
2022-08-04T08:02:01.742Z,99936.50
2022-08-04T08:05:08.891Z,99932.63
2022-08-04T08:08:13.766Z,99940.47
2022-08-04T08:11:19.957Z,99942.56
2022-08-04T08:14:25.748Z,99961.44
2022-08-04T08:17:30.463Z,99959.44
2022-08-04T08:20:35.175Z,99966.44
2022-08-04T08:23:40.558Z,99971.19
2022-08-04T08:26:45.539Z,99962.63
2022-08-04T08:29:50.456Z,99951.44
2022-08-04T08:32:54.871Z,99954.22
2022-08-04T08:36:14.520Z,99955.16
2022-08-04T08:39:41.413Z,99956.59
2022-08-04T08:42:56.997Z,99959.84
2022-08-04T08:46:45.213Z,99962.41
2022-08-04T08:50:14.622Z,99962.91
2022-08-04T08:53:34.503Z,99963.09
2022-08-04T08:57:09.380Z,99960.00
2022-08-04T09:00:18.431Z,99949.72
2022-08-04T09:03:47.917Z,99957.66
2022-08-04T09:07:28.526Z,99941.19
2022-08-04T09:10:52.135Z,99930.50
2022-08-04T09:14:11.317Z,99935.94
2022-08-04T09:17:28.918Z,99933.38
2022-08-04T09:20:50.145Z,99826.75
2022-08-04T09:24:34.846Z,99945.44
2022-08-04T09:27:51.603Z,99945.00
2022-08-04T09:31:03.788Z,99960.63
2022-08-04T09:34:34.284Z,99961.16
2022-08-04T09:38:02.197Z,99963.91
2022-08-04T09:41:49.361Z,99958.53
2022-08-04T09:45:08.467Z,99952.31
2022-08-04T09:48:46.342Z,99962.44
2022-08-04T09:52:09.209Z,99960.53
2022-08-04T09:55:32.350Z,99949.56
2022-08-04T09:58:42.476Z,99954.31
2022-08-04T10:01:59.011Z,99943.56
2022-08-04T10:05:10.890Z,99944.06
2022-08-04T10:08:36.464Z,99939.75
2022-08-04T10:11:59.035Z,99942.69
2022-08-04T10:15:23.134Z,99952.91
2022-08-04T10:18:53.017Z,99949.88
2022-08-04T10:22:30.688Z,99943.00
2022-08-04T10:26:06.029Z,99945.25
2022-08-04T10:29:19.580Z,99934.81
2022-08-04T10:32:50.306Z,99931.38
2022-08-04T10:36:05.927Z,99937.72
2022-08-04T10:39:43.163Z,99940.88
2022-08-04T10:42:55.262Z,99951.19
2022-08-04T10:46:16.084Z,99954.03
2022-08-04T10:49:34.057Z,99952.78
2022-08-04T10:52:49.463Z,99957.75
2022-08-04T10:56:20.981Z,99951.91
2022-08-04T10:59:49.124Z,99944.34
2022-08-04T11:03:24.688Z,99948.94
2022-08-04T11:06:30.583Z,99934.50
2022-08-04T11:09:36.141Z,99935.75
2022-08-04T11:12:43.569Z,99944.63
2022-08-04T11:15:56.659Z,99964.28
2022-08-04T11:19:12.702Z,99877.28
2022-08-04T11:22:26.869Z,99973.94
2022-08-04T11:25:55.439Z,99977.41
2022-08-04T11:29:32.275Z,99982.56
2022-08-04T11:32:48.353Z,99994.25
2022-08-04T11:36:17.153Z,99998.84
2022-08-04T11:39:38.309Z,100001.53
2022-08-04T11:43:03.829Z,99928.25
2022-08-04T11:46:19.732Z,99979.28
2022-08-04T11:50:11.976Z,99997.81
2022-08-04T11:53:20.655Z,99991.25
2022-08-04T11:56:36.876Z,99983.84
2022-08-04T11:59:44.097Z,99995.81
2022-08-04T12:03:02.837Z,100003.63
2022-08-04T12:06:13.070Z,99996.09
2022-08-04T12:09:44.672Z,99994.09
2022-08-04T12:13:14.719Z,99992.34
2022-08-04T12:16:42.679Z,99984.94
2022-08-04T12:20:04.868Z,99979.72
2022-08-04T12:23:27.866Z,99993.88
2022-08-04T12:26:51.716Z,99987.84
2022-08-04T12:31:00.378Z,99999.16
2022-08-04T12:33:23.414Z,100000.06
2022-08-04T12:37:03.239Z,99994.38
2022-08-04T12:40:29.118Z,99982.72
2022-08-04T12:43:44.137Z,99982.69
2022-08-04T12:46:49.743Z,99981.16
2022-08-04T12:50:00.941Z,99980.81
2022-08-04T12:53:19.315Z,99975.03
2022-08-04T12:56:37.011Z,99966.00
2022-08-04T12:59:44.819Z,99960.66
2022-08-04T13:02:50.434Z,99966.50
2022-08-04T13:05:56.689Z,99965.50
2022-08-04T13:09:06.608Z,99970.53
2022-08-04T13:12:32.254Z,99962.69
2022-08-04T13:15:47.650Z,99958.28
2022-08-04T13:19:05.207Z,99958.94
2022-08-04T13:22:10.598Z,99952.94
2022-08-04T13:26:44.108Z,99934.16
2022-08-04T13:28:46.463Z,99937.00
2022-08-04T13:31:53.241Z,99948.53
2022-08-04T13:35:01.347Z,99939.19
2022-08-04T13:38:12.673Z,99927.66
2022-08-04T13:41:20.140Z,99913.91
2022-08-04T13:44:28.898Z,99924.16
2022-08-04T13:47:38.764Z,99926.97
2022-08-04T13:50:48.383Z,99910.13
2022-08-04T13:54:00.105Z,99903.50
2022-08-04T13:57:23.598Z,99882.69
2022-08-04T14:00:44.711Z,99900.25
2022-08-04T14:03:54.130Z,99905.59
2022-08-04T14:07:21.318Z,99891.69
2022-08-04T14:10:26.629Z,99882.28
2022-08-04T14:13:41.030Z,99912.34
2022-08-04T14:17:04.606Z,99900.13
2022-08-04T14:20:09.691Z,99881.72
2022-08-04T14:23:14.832Z,99896.25
2022-08-04T14:26:31.353Z,99883.91
2022-08-04T14:29:41.601Z,99884.44
2022-08-04T14:34:03.093Z,99883.81
2022-08-04T14:36:25.420Z,99879.75
2022-08-04T14:40:08.262Z,99885.28
2022-08-04T14:43:09.596Z,99878.16
2022-08-04T14:46:15.112Z,99864.97
2022-08-04T14:49:20.268Z,99872.34
2022-08-04T14:52:26.446Z,99852.97
2022-08-04T14:55:31.390Z,99856.94
2022-08-04T14:58:39.484Z,99845.69
2022-08-04T15:01:46.808Z,99839.84
2022-08-04T15:05:55.061Z,99859.09
2022-08-04T15:08:31.891Z,99869.31
2022-08-04T15:11:43.271Z,99878.88
2022-08-04T15:14:48.116Z,99890.69
2022-08-04T15:17:56.037Z,99877.28
2022-08-04T15:21:03.177Z,99880.91
2022-08-04T15:24:08.307Z,99886.06
2022-08-04T15:27:14.626Z,99893.28
2022-08-04T15:30:20.287Z,99884.94
2022-08-04T15:33:28.954Z,99897.16
2022-08-04T15:36:44.426Z,99914.22
2022-08-04T15:40:34.318Z,99902.38
2022-08-04T15:44:18.127Z,99896.19
2022-08-04T15:47:22.746Z,99898.44
2022-08-04T15:50:28.124Z,99898.44
2022-08-04T15:54:02.841Z,99897.66
2022-08-04T15:57:07.659Z,99897.94
2022-08-04T16:00:15.211Z,99902.47
2022-08-04T16:03:57.811Z,99908.41
2022-08-04T16:07:08.645Z,99909.19
2022-08-04T16:10:46.655Z,99923.44
2022-08-04T16:14:00.579Z,99931.00
2022-08-04T16:17:29.511Z,99920.81
2022-08-04T16:20:35.169Z,99927.75
2022-08-04T16:23:58.147Z,99931.47
2022-08-04T16:27:13.619Z,99940.56
2022-08-04T16:30:19.157Z,99936.63
2022-08-04T16:33:44.038Z,99937.28
2022-08-04T16:37:01.722Z,99937.72
2022-08-04T16:40:37.674Z,99938.41
2022-08-04T16:43:42.323Z,99940.19
2022-08-04T16:47:08.284Z,99939.16
2022-08-04T16:50:11.893Z,99932.19
2022-08-04T16:54:02.899Z,99938.22
2022-08-04T16:56:44.747Z,99915.00
2022-08-04T16:59:53.421Z,99924.94
2022-08-04T17:02:58.986Z,99922.19
2022-08-04T17:06:10.339Z,99902.72
2022-08-04T17:09:25.544Z,99832.22
2022-08-04T17:12:33.287Z,99908.44
2022-08-04T17:15:37.789Z,99913.03
2022-08-04T17:18:49.103Z,99899.38
2022-08-04T17:22:00.381Z,99909.41
2022-08-04T17:25:08.474Z,99896.81
2022-08-04T17:28:25.143Z,99906.97
2022-08-04T17:31:40.497Z,99909.19
2022-08-04T17:34:53.156Z,99898.84
2022-08-04T17:37:58.005Z,99883.31
2022-08-04T17:41:19.068Z,99864.03
2022-08-04T17:44:39.012Z,99880.88
2022-08-04T17:47:55.595Z,99883.50
2022-08-04T17:51:16.843Z,99884.94
2022-08-04T17:54:37.214Z,99875.88
2022-08-04T18:01:16.353Z,99870.72
2022-08-04T18:04:32.991Z,99876.84
2022-08-04T18:08:40.587Z,99874.00
2022-08-04T18:11:09.056Z,99855.00
2022-08-04T18:14:13.662Z,99863.94
2022-08-04T18:18:21.162Z,99853.75
2022-08-04T18:21:02.857Z,99844.41
2022-08-04T18:24:08.394Z,99836.19
2022-08-04T18:27:18.198Z,99847.47
2022-08-04T18:30:38.284Z,99849.06
2022-08-04T18:33:57.105Z,99824.09
2022-08-04T18:37:02.349Z,99839.63
2022-08-04T18:40:35.579Z,99833.16
2022-08-04T18:43:56.070Z,99828.09
2022-08-04T18:47:22.123Z,99833.03
2022-08-04T18:50:58.862Z,99822.84
2022-08-04T18:53:55.168Z,99824.22
2022-08-04T18:57:24.630Z,99823.00
2022-08-04T19:00:28.504Z,99818.72
2022-08-04T19:03:33.478Z,99798.97
2022-08-04T19:06:38.651Z,99804.38
2022-08-04T19:09:51.221Z,99805.72
2022-08-04T19:12:57.239Z,99794.69
2022-08-04T19:16:04.947Z,99767.44
2022-08-04T19:19:21.729Z,99750.53
2022-08-04T19:24:29.845Z,99795.41
2022-08-04T19:26:17.926Z,99776.13
2022-08-04T19:29:37.859Z,99788.03
2022-08-04T19:32:48.237Z,99800.00
2022-08-04T19:35:54.628Z,99806.16
2022-08-04T19:39:01.284Z,99811.69
2022-08-04T19:42:07.310Z,99812.19
2022-08-04T19:45:15.860Z,99811.09
2022-08-04T19:48:22.551Z,99821.81
2022-08-04T19:51:28.386Z,99791.06
2022-08-04T19:54:33.381Z,99805.94
2022-08-04T19:57:46.420Z,99811.34
2022-08-04T20:00:54.476Z,99814.97
2022-08-04T20:04:09.947Z,99825.31
2022-08-04T20:07:15.612Z,99832.72
2022-08-04T20:10:23.927Z,99819.88
2022-08-04T20:13:37.348Z,99839.63
2022-08-04T20:16:43.513Z,99844.13
2022-08-04T20:19:51.330Z,99839.78
2022-08-04T20:22:56.420Z,99836.00
2022-08-04T20:26:01.304Z,99835.75
2022-08-04T20:29:06.227Z,99840.97
2022-08-04T20:32:12.292Z,99835.63
2022-08-04T20:35:20.208Z,99850.84
2022-08-04T20:38:32.979Z,99856.50
2022-08-04T20:41:39.100Z,99857.25
2022-08-04T20:44:49.460Z,99840.28
2022-08-04T20:47:54.498Z,99848.41
2022-08-04T20:51:01.083Z,99844.69
2022-08-04T20:54:16.814Z,99851.31
2022-08-04T20:57:37.711Z,99827.22
2022-08-04T21:00:53.176Z,99848.91
2022-08-04T21:04:27.818Z,99830.38
2022-08-04T21:07:34.948Z,99853.66
2022-08-04T21:10:47.554Z,99859.06
2022-08-04T21:13:52.869Z,99859.66
2022-08-04T21:16:59.400Z,99854.97
2022-08-04T21:20:05.144Z,99850.66
2022-08-04T21:23:10.710Z,99859.25
2022-08-04T21:26:22.344Z,99842.06
2022-08-04T21:29:35.242Z,99842.72
2022-08-04T21:32:41.219Z,99838.13
2022-08-04T21:35:46.642Z,99846.19
2022-08-04T21:38:53.799Z,99856.50
2022-08-04T21:42:27.748Z,99839.09
2022-08-04T21:45:23.461Z,99815.03
2022-08-04T21:48:42.536Z,99843.28
2022-08-04T21:51:59.973Z,99840.47
2022-08-04T21:55:06.286Z,99824.13
2022-08-04T21:58:13.194Z,99829.56
2022-08-04T22:01:25.827Z,99823.31
2022-08-04T22:04:44.956Z,99838.59
2022-08-04T22:07:51.682Z,99846.16
2022-08-04T22:10:57.999Z,99842.44
2022-08-04T22:14:11.816Z,99849.56
2022-08-04T22:17:18.356Z,99831.03
2022-08-04T22:20:27.725Z,99823.47
2022-08-04T22:23:45.707Z,99824.72
2022-08-04T22:26:52.030Z,99806.91
2022-08-04T22:29:56.706Z,99810.44
2022-08-04T22:33:03.356Z,99807.00
2022-08-04T22:36:09.367Z,99807.00
2022-08-04T22:39:13.993Z,99809.25
2022-08-04T22:42:20.544Z,99806.06
2022-08-04T22:45:28.613Z,99803.41
2022-08-04T22:48:35.964Z,99807.47
2022-08-04T22:51:40.481Z,99802.06
2022-08-04T22:54:53.035Z,99817.91
2022-08-04T22:58:04.770Z,99814.09
2022-08-04T23:01:15.869Z,99818.25
2022-08-04T23:04:20.589Z,99816.38
2022-08-04T23:07:37.954Z,99796.28
2022-08-04T23:10:50.004Z,99771.88
2022-08-04T23:13:54.760Z,99791.13
2022-08-04T23:17:00.525Z,99776.75
2022-08-04T23:20:06.223Z,99784.44
2022-08-04T23:23:28.255Z,99782.66
2022-08-04T23:26:32.905Z,99782.97
2022-08-04T23:29:53.036Z,99779.38
2022-08-04T23:32:59.509Z,99770.78
2022-08-04T23:36:04.372Z,99775.66
2022-08-04T23:39:09.259Z,99759.69
2022-08-04T23:42:14.998Z,99759.13
2022-08-04T23:46:06.327Z,99759.38
2022-08-04T23:48:52.859Z,99752.69
2022-08-04T23:51:57.584Z,99760.53
2022-08-04T23:55:02.452Z,99769.00
2022-08-04T23:58:18.731Z,99775.78
